createdAt,value
2023-04-13T00:01:03.027Z,97991.31
2023-04-13T00:03:33.668Z,97996.47
2023-04-13T00:06:03.569Z,98001.41
2023-04-13T00:08:36.075Z,98009.56
2023-04-13T00:11:07.813Z,98011.47
2023-04-13T00:13:41.395Z,98004.06
2023-04-13T00:16:14.697Z,98003.03
2023-04-13T00:18:45.270Z,97994.88
2023-04-13T00:21:17.324Z,97989.97
2023-04-13T00:23:47.471Z,97990.53
2023-04-13T00:26:20.779Z,97981.25
2023-04-13T00:28:50.514Z,97974.69
2023-04-13T00:31:23.913Z,97973.97
2023-04-13T00:33:53.537Z,97981.03
2023-04-13T00:36:24.972Z,97983.38
2023-04-13T00:38:54.660Z,97993.75
2023-04-13T00:41:24.396Z,97993.78
2023-04-13T00:43:54.232Z,98002.81
2023-04-13T00:46:26.650Z,97991.47
2023-04-13T00:48:58.356Z,97990.00
2023-04-13T00:51:30.319Z,97990.00
2023-04-13T00:54:00.627Z,97986.19
2023-04-13T00:56:30.992Z,97981.84
2023-04-13T00:59:00.701Z,97988.63
2023-04-13T01:01:33.139Z,97980.75
2023-04-13T01:04:02.889Z,97989.34
2023-04-13T01:06:42.214Z,97988.84
2023-04-13T01:09:17.941Z,98000.16
2023-04-13T01:11:56.434Z,97988.38
2023-04-13T01:14:32.357Z,97985.91
2023-04-13T01:17:08.712Z,97996.53
2023-04-13T01:19:51.944Z,98003.00
2023-04-13T01:22:25.676Z,98003.13
2023-04-13T01:25:11.638Z,98007.69
2023-04-13T01:27:51.877Z,98012.41
2023-04-13T01:30:26.275Z,98019.72
2023-04-13T01:32:59.924Z,98025.03
2023-04-13T01:35:31.433Z,98014.50
2023-04-13T01:38:02.434Z,98014.84
2023-04-13T01:40:35.088Z,98015.47
2023-04-13T01:43:07.391Z,98023.63
2023-04-13T01:45:50.701Z,98026.59
2023-04-13T01:48:24.869Z,98036.00
2023-04-13T01:51:07.477Z,98026.69
2023-04-13T01:53:49.376Z,98038.41
2023-04-13T01:56:23.337Z,98032.38
2023-04-13T01:59:02.623Z,98033.47
2023-04-13T02:01:33.265Z,98016.00
2023-04-13T02:04:03.905Z,98001.78
2023-04-13T02:06:35.153Z,98003.97
2023-04-13T02:09:08.393Z,98008.97
2023-04-13T02:11:38.611Z,98009.28
2023-04-13T02:14:12.577Z,98005.75
2023-04-13T02:16:43.790Z,98018.81
2023-04-13T02:19:16.452Z,98023.72
2023-04-13T02:21:46.273Z,98032.34
2023-04-13T02:24:17.145Z,98032.09
2023-04-13T02:26:47.836Z,98030.09
2023-04-13T02:29:20.090Z,98029.63
2023-04-13T02:31:49.854Z,98018.19
2023-04-13T02:34:19.541Z,98014.44
2023-04-13T02:36:49.222Z,98021.47
2023-04-13T02:39:18.923Z,98014.41
2023-04-13T02:41:48.616Z,98015.78
2023-04-13T02:44:25.885Z,98022.00
2023-04-13T02:46:59.688Z,98024.72
2023-04-13T02:49:29.339Z,98026.28
2023-04-13T02:52:13.602Z,98037.56
2023-04-13T02:54:54.909Z,98035.56
2023-04-13T02:57:28.552Z,98042.97
2023-04-13T03:00:07.797Z,98041.47
2023-04-13T03:02:45.535Z,98053.41
2023-04-13T03:05:20.068Z,98054.56
2023-04-13T03:07:50.224Z,98058.63
2023-04-13T03:10:20.642Z,98052.81
2023-04-13T03:12:50.820Z,98051.25
2023-04-13T03:15:23.836Z,98054.63
2023-04-13T03:17:53.540Z,98047.06
2023-04-13T03:20:29.376Z,98054.72
2023-04-13T03:23:02.813Z,98055.00
2023-04-13T03:25:36.344Z,98057.16
2023-04-13T03:28:06.925Z,98043.69
2023-04-13T03:30:44.989Z,98054.59
2023-04-13T03:33:14.628Z,98055.66
2023-04-13T03:35:44.853Z,98058.38
2023-04-13T03:38:23.750Z,98048.06
2023-04-13T03:40:55.037Z,98050.22
2023-04-13T03:43:28.038Z,98056.19
2023-04-13T03:46:19.113Z,98051.38
2023-04-13T03:48:48.979Z,98055.72
2023-04-13T03:51:22.613Z,98047.31
2023-04-13T03:53:55.315Z,98056.78
2023-04-13T03:56:28.102Z,98051.34
2023-04-13T03:58:59.475Z,98044.84
2023-04-13T04:01:32.942Z,98041.03
2023-04-13T04:04:02.984Z,98042.06
2023-04-13T04:06:33.998Z,98027.75
2023-04-13T04:09:15.905Z,98038.06
2023-04-13T04:11:49.913Z,98043.22
2023-04-13T04:14:26.795Z,98035.06
2023-04-13T04:17:09.677Z,98031.56
2023-04-13T04:19:39.413Z,98043.09
2023-04-13T04:22:09.785Z,98040.97
2023-04-13T04:24:42.918Z,98054.06
2023-04-13T04:27:14.582Z,98063.91
2023-04-13T04:29:49.198Z,98077.94
2023-04-13T04:32:29.991Z,98075.00
2023-04-13T04:34:59.699Z,98076.41
2023-04-13T04:37:29.985Z,98077.22
2023-04-13T04:40:05.765Z,98079.13
2023-04-13T04:42:35.508Z,98081.84
2023-04-13T04:45:07.447Z,98087.78
2023-04-13T04:47:45.260Z,98082.13
2023-04-13T04:50:22.124Z,98083.41
2023-04-13T04:52:58.611Z,98079.69
2023-04-13T04:55:28.611Z,98082.41
2023-04-13T04:57:59.326Z,98088.41
2023-04-13T05:00:31.021Z,98082.38
2023-04-13T05:03:10.913Z,98077.22
2023-04-13T05:05:45.700Z,98083.50
2023-04-13T05:08:20.667Z,98098.28
2023-04-13T05:10:52.702Z,98092.94
2023-04-13T05:13:22.879Z,98093.00
2023-04-13T05:16:05.915Z,98087.47
2023-04-13T05:18:47.178Z,98076.00
2023-04-13T05:21:37.573Z,98083.38
2023-04-13T05:24:07.533Z,98090.97
2023-04-13T05:26:37.973Z,98088.25
2023-04-13T05:29:08.735Z,98097.50
2023-04-13T05:31:43.231Z,98090.44
2023-04-13T05:34:16.681Z,98091.00
2023-04-13T05:37:01.281Z,98090.69
2023-04-13T05:39:31.008Z,98090.94
2023-04-13T05:42:01.515Z,98095.50
2023-04-13T05:44:33.885Z,98096.88
2023-04-13T05:47:04.146Z,98093.13
2023-04-13T05:49:38.935Z,98091.56
2023-04-13T05:52:10.695Z,98103.84
2023-04-13T05:54:47.367Z,98113.25
2023-04-13T05:57:17.201Z,98119.81
2023-04-13T05:59:50.248Z,98118.78
2023-04-13T06:02:26.800Z,98116.28
2023-04-13T06:04:59.562Z,98124.75
2023-04-13T06:07:29.583Z,98122.06
2023-04-13T06:10:00.955Z,98115.50
2023-04-13T06:12:30.896Z,98117.00
2023-04-13T06:15:00.542Z,98108.75
2023-04-13T06:17:30.912Z,98121.94
2023-04-13T06:20:04.337Z,98110.38
2023-04-13T06:22:37.038Z,98117.31
2023-04-13T06:25:08.694Z,98112.06
2023-04-13T06:27:43.586Z,98109.53
2023-04-13T06:30:15.004Z,98107.16
2023-04-13T06:32:45.541Z,98110.50
2023-04-13T06:35:21.273Z,98109.44
2023-04-13T06:37:52.648Z,98112.63
2023-04-13T06:40:28.504Z,98095.25
2023-04-13T06:43:08.956Z,98100.38
2023-04-13T06:45:50.709Z,98085.22
2023-04-13T06:48:24.085Z,98088.59
2023-04-13T06:51:01.880Z,98082.47
2023-04-13T06:53:34.361Z,98094.03
2023-04-13T06:56:04.095Z,98099.81
2023-04-13T06:58:34.637Z,98088.09
2023-04-13T07:01:04.423Z,98094.47
2023-04-13T07:03:37.025Z,98089.75
2023-04-13T07:06:11.804Z,98087.63
2023-04-13T07:08:42.247Z,98087.53
2023-04-13T07:11:12.000Z,98100.78
2023-04-13T07:13:42.327Z,98106.84
2023-04-13T07:16:14.754Z,98093.47
2023-04-13T07:18:47.729Z,98093.25
2023-04-13T07:21:20.024Z,98093.84
2023-04-13T07:24:03.359Z,98094.97
2023-04-13T07:26:34.365Z,98094.59
2023-04-13T07:29:04.252Z,98102.78
2023-04-13T07:31:38.456Z,98110.16
2023-04-13T07:34:09.287Z,98108.03
2023-04-13T07:36:47.363Z,98120.56
2023-04-13T07:39:21.941Z,98115.59
2023-04-13T07:41:54.213Z,98115.97
2023-04-13T07:44:31.337Z,98113.16
2023-04-13T07:47:01.169Z,98116.59
2023-04-13T07:49:32.989Z,98113.50
2023-04-13T07:52:05.396Z,98115.84
2023-04-13T07:54:38.897Z,98114.09
2023-04-13T07:57:11.318Z,98118.47
2023-04-13T07:59:46.646Z,98118.78
2023-04-13T08:02:18.398Z,98132.13
2023-04-13T08:04:52.965Z,98123.59
2023-04-13T08:07:29.746Z,98126.59
2023-04-13T08:09:59.664Z,98127.56
2023-04-13T08:12:31.558Z,98133.38
2023-04-13T08:15:01.220Z,98128.53
2023-04-13T08:17:31.805Z,98127.03
2023-04-13T08:20:04.241Z,98126.41
2023-04-13T08:22:37.172Z,98152.69
2023-04-13T08:25:10.282Z,98151.22
2023-04-13T08:27:40.779Z,98140.66
2023-04-13T08:30:12.765Z,98137.44
2023-04-13T08:32:55.475Z,98150.91
2023-04-13T08:35:26.796Z,98144.25
2023-04-13T08:37:59.212Z,98155.19
2023-04-13T08:40:29.355Z,98149.00
2023-04-13T08:42:59.958Z,98155.19
2023-04-13T08:45:30.777Z,98151.84
2023-04-13T08:48:02.068Z,98163.00
2023-04-13T08:50:34.075Z,98160.47
2023-04-13T08:53:07.416Z,98156.16
2023-04-13T08:55:37.398Z,98165.50
2023-04-13T08:58:08.576Z,98157.47
2023-04-13T09:00:39.020Z,98165.34
2023-04-13T09:03:14.073Z,98158.69
2023-04-13T09:05:49.437Z,98160.22
2023-04-13T09:08:22.751Z,98157.44
2023-04-13T09:10:54.349Z,98167.91
2023-04-13T09:13:24.090Z,98157.56
2023-04-13T09:15:54.043Z,98165.31
2023-04-13T09:18:29.541Z,98169.25
2023-04-13T09:21:08.331Z,98172.38
2023-04-13T09:23:40.686Z,98157.69
2023-04-13T09:26:11.469Z,98182.31
2023-04-13T09:28:54.301Z,98185.38
2023-04-13T09:31:25.853Z,98185.28
2023-04-13T09:33:56.001Z,98194.38
2023-04-13T09:36:25.675Z,98193.69
2023-04-13T09:38:59.595Z,98192.63
2023-04-13T09:41:37.147Z,98204.25
2023-04-13T09:44:20.444Z,98209.81
2023-04-13T09:47:00.088Z,98217.66
2023-04-13T09:49:39.342Z,98215.47
2023-04-13T09:52:10.213Z,98208.47
2023-04-13T09:54:42.545Z,98211.97
2023-04-13T09:57:12.263Z,98222.22
2023-04-13T09:59:42.383Z,98226.97
2023-04-13T10:02:13.065Z,98217.91
2023-04-13T10:04:43.895Z,98215.91
2023-04-13T10:07:13.605Z,98219.78
2023-04-13T10:09:46.161Z,98214.94
2023-04-13T10:12:19.580Z,98231.31
2023-04-13T10:14:51.986Z,98228.34
2023-04-13T10:17:42.876Z,98217.25
2023-04-13T10:20:15.326Z,98227.19
2023-04-13T10:22:48.763Z,98221.91
2023-04-13T10:25:32.822Z,98225.94
2023-04-13T10:28:04.368Z,98222.78
2023-04-13T10:30:34.129Z,98223.19
2023-04-13T10:33:05.935Z,98226.44
2023-04-13T10:35:40.794Z,98228.19
2023-04-13T10:38:12.614Z,98224.34
2023-04-13T10:40:49.678Z,98229.50
2023-04-13T10:43:29.310Z,98236.91
2023-04-13T10:46:09.906Z,98232.16
2023-04-13T10:48:40.235Z,98234.06
2023-04-13T10:51:10.063Z,98243.53
2023-04-13T10:53:39.892Z,98254.38
2023-04-13T10:56:21.237Z,98252.06
2023-04-13T10:58:55.703Z,98255.88
2023-04-13T11:01:25.754Z,98258.44
2023-04-13T11:04:04.399Z,98259.47
2023-04-13T11:06:39.476Z,98265.88
2023-04-13T11:09:13.746Z,98263.63
2023-04-13T11:11:46.690Z,98273.66
2023-04-13T11:14:23.797Z,98274.78
2023-04-13T11:16:58.511Z,98273.41
2023-04-13T11:19:28.430Z,98280.31
2023-04-13T11:21:59.867Z,98283.75
2023-04-13T11:24:30.258Z,98294.91
2023-04-13T11:27:03.907Z,98285.19
2023-04-13T11:29:33.638Z,98287.13
2023-04-13T11:32:03.801Z,98288.22
2023-04-13T11:34:33.453Z,98294.09
2023-04-13T11:37:06.232Z,98281.97
2023-04-13T11:39:38.596Z,98285.22
2023-04-13T11:42:11.127Z,98279.81
2023-04-13T11:44:42.883Z,98288.78
2023-04-13T11:47:15.413Z,98293.66
2023-04-13T11:49:48.101Z,98293.13
2023-04-13T11:52:18.288Z,98299.94
2023-04-13T11:54:49.290Z,98302.13
2023-04-13T11:57:22.244Z,98297.00
2023-04-13T11:59:54.262Z,98300.97
2023-04-13T12:02:29.812Z,98295.41
2023-04-13T12:05:00.745Z,98292.13
2023-04-13T12:07:31.359Z,98303.75
2023-04-13T12:10:05.802Z,98292.19
2023-04-13T12:15:33.186Z,98296.50
2023-04-13T12:18:14.310Z,98300.69
2023-04-13T12:20:48.380Z,98295.41
2023-04-13T12:23:24.022Z,98302.69
2023-04-13T12:25:58.757Z,98306.31
2023-04-13T12:28:35.853Z,98310.41
2023-04-13T12:31:07.621Z,98307.78
2023-04-13T12:33:37.588Z,98310.25
2023-04-13T12:36:11.410Z,98310.84
2023-04-13T12:38:41.181Z,98307.09
2023-04-13T12:41:12.614Z,98310.53
2023-04-13T12:43:44.891Z,98312.69
2023-04-13T12:46:14.914Z,98315.31
2023-04-13T12:48:44.608Z,98315.56
2023-04-13T12:51:14.349Z,98318.31
2023-04-13T12:53:44.146Z,98319.66
2023-04-13T12:56:13.839Z,98326.56
2023-04-13T12:58:46.265Z,98321.06
2023-04-13T13:01:16.520Z,98336.63
2023-04-13T13:03:46.589Z,98344.53
2023-04-13T13:06:16.358Z,98345.91
2023-04-13T13:08:46.173Z,98354.56
2023-04-13T13:11:15.857Z,98350.59
2023-04-13T13:13:48.480Z,98344.06
2023-04-13T13:16:19.623Z,98344.97
2023-04-13T13:18:51.539Z,98353.09
2023-04-13T13:21:22.085Z,98351.09
2023-04-13T13:23:52.682Z,98344.75
2023-04-13T13:26:24.376Z,98356.53
2023-04-13T13:28:57.599Z,98359.34
2023-04-13T13:31:27.768Z,98351.72
2023-04-13T13:33:57.417Z,98352.84
2023-04-13T13:36:27.909Z,98352.72
2023-04-13T13:39:00.053Z,98357.47
2023-04-13T13:41:29.867Z,98354.97
2023-04-13T13:44:02.202Z,98351.56
2023-04-13T13:46:32.063Z,98351.84
2023-04-13T13:49:05.830Z,98345.22
2023-04-13T13:51:56.084Z,98355.03
2023-04-13T13:54:28.846Z,98357.56
2023-04-13T13:56:58.469Z,98346.38
2023-04-13T13:59:30.730Z,98348.41
2023-04-13T14:02:01.241Z,98351.59
2023-04-13T14:04:31.068Z,98362.09
2023-04-13T14:07:00.966Z,98364.50
2023-04-13T14:09:31.032Z,98359.47
2023-04-13T14:12:02.105Z,98366.00
2023-04-13T14:14:34.384Z,98373.91
2023-04-13T14:17:04.022Z,98381.94
2023-04-13T14:19:34.760Z,98383.47
2023-04-13T14:22:04.423Z,98382.47
2023-04-13T14:24:34.062Z,98386.47
2023-04-13T14:27:03.695Z,98385.66
2023-04-13T14:29:36.150Z,98385.72
2023-04-13T14:32:05.942Z,98385.00
2023-04-13T14:34:35.605Z,98383.78
2023-04-13T14:37:05.270Z,98379.06
2023-04-13T14:39:34.928Z,98381.13
2023-04-13T14:42:04.663Z,98381.22
2023-04-13T14:44:36.957Z,98385.91
2023-04-13T14:47:08.962Z,98392.50
2023-04-13T14:49:39.312Z,98396.47
2023-04-13T14:52:09.143Z,98392.00
2023-04-13T14:54:39.256Z,98409.19
2023-04-13T14:57:10.040Z,98405.63
2023-04-13T14:59:42.341Z,98418.22
2023-04-13T15:02:12.177Z,98425.47
2023-04-13T15:04:42.725Z,98418.66
2023-04-13T15:07:12.452Z,98422.34
2023-04-13T15:09:42.205Z,98433.31
2023-04-13T15:12:13.646Z,98435.03
2023-04-13T15:14:47.020Z,98444.72
2023-04-13T15:17:16.663Z,98437.47
2023-04-13T15:19:46.313Z,98446.13
2023-04-13T15:22:16.093Z,98444.44
2023-04-13T15:24:45.752Z,98441.53
2023-04-13T15:27:15.457Z,98448.97
2023-04-13T15:29:47.763Z,98448.28
2023-04-13T15:32:17.427Z,98455.50
2023-04-13T15:34:47.164Z,98447.28
2023-04-13T15:37:16.819Z,98444.09
2023-04-13T15:39:46.432Z,98445.31
2023-04-13T15:42:16.173Z,98443.22
2023-04-13T15:44:48.566Z,98446.47
2023-04-13T15:47:18.381Z,98440.50
2023-04-13T15:49:47.981Z,98450.34
2023-04-13T15:52:17.661Z,98446.75
2023-04-13T15:54:47.859Z,98449.22
2023-04-13T15:57:18.840Z,98447.09
2023-04-13T15:59:51.054Z,98443.81
2023-04-13T16:02:20.770Z,98453.00
2023-04-13T16:04:51.062Z,98451.50
2023-04-13T16:07:21.127Z,98454.88
2023-04-13T16:09:56.310Z,98462.13
2023-04-13T16:12:31.490Z,98467.63
2023-04-13T16:15:06.331Z,98469.63
2023-04-13T16:17:40.437Z,98471.16
2023-04-13T16:20:18.233Z,98472.38
2023-04-13T16:22:52.310Z,98465.16
2023-04-13T16:25:22.474Z,98470.78
2023-04-13T16:27:54.824Z,98474.25
2023-04-13T16:30:30.511Z,98478.59
2023-04-13T16:33:00.244Z,98482.22
2023-04-13T16:35:30.029Z,98488.03
2023-04-13T16:37:59.682Z,98489.09
2023-04-13T16:40:29.410Z,98496.53
2023-04-13T16:42:59.065Z,98497.69
2023-04-13T16:45:31.569Z,98489.66
2023-04-13T16:48:01.412Z,98496.94
2023-04-13T16:50:32.314Z,98507.84
2023-04-13T16:53:02.673Z,98505.78
2023-04-13T16:55:32.309Z,98513.41
2023-04-13T16:58:01.947Z,98511.69
2023-04-13T17:00:35.382Z,98519.56
2023-04-13T17:03:05.326Z,98519.19
2023-04-13T17:05:35.068Z,98530.09
2023-04-13T17:08:06.033Z,98534.56
2023-04-13T17:10:36.473Z,98533.66
2023-04-13T17:13:06.159Z,98538.44
2023-04-13T17:15:38.544Z,98540.25
2023-04-13T17:18:08.396Z,98546.25
2023-04-13T17:20:39.818Z,98549.13
2023-04-13T17:23:09.533Z,98542.41
2023-04-13T17:25:41.648Z,98536.84
2023-04-13T17:28:11.640Z,98536.16
2023-04-13T17:30:43.874Z,98542.69
2023-04-13T17:33:13.644Z,98539.56
2023-04-13T17:35:43.318Z,98541.25
2023-04-13T17:38:12.998Z,98549.56
2023-04-13T17:40:42.646Z,98551.63
2023-04-13T17:43:12.288Z,98548.22
2023-04-13T17:45:44.532Z,98554.47
2023-04-13T17:48:14.219Z,98554.47
2023-04-13T17:50:43.945Z,98556.53
2023-04-13T17:53:13.578Z,98560.03
2023-04-13T17:55:43.260Z,98566.34
2023-04-13T17:58:13.529Z,98578.50
2023-04-13T18:00:45.741Z,98576.41
2023-04-13T18:03:15.476Z,98581.25
2023-04-13T18:05:47.217Z,98578.00
2023-04-13T18:08:16.892Z,98590.19
2023-04-13T18:10:46.553Z,98590.84
2023-04-13T18:13:16.966Z,98596.31
2023-04-13T18:15:50.448Z,98593.50
2023-04-13T18:18:24.388Z,98619.34
2023-04-13T18:20:54.794Z,98627.78
2023-04-13T18:23:24.685Z,98630.47
2023-04-13T18:25:54.562Z,98633.88
2023-04-13T18:28:24.219Z,98633.47
2023-04-13T18:31:02.143Z,98638.78
2023-04-13T18:33:32.149Z,98647.97
2023-04-13T18:36:01.840Z,98647.06
2023-04-13T18:38:31.529Z,98659.97
2023-04-13T18:41:01.307Z,98667.31
2023-04-13T18:43:31.172Z,98666.81
2023-04-13T18:46:03.767Z,98676.16
2023-04-13T18:48:33.550Z,98679.78
2023-04-13T18:51:03.881Z,98685.50
2023-04-13T18:53:34.068Z,98686.31
2023-04-13T18:56:03.701Z,98692.63
2023-04-13T18:58:33.398Z,98696.97
2023-04-13T19:01:05.688Z,98712.28
2023-04-13T19:03:35.572Z,98709.03
2023-04-13T19:06:05.825Z,98719.69
2023-04-13T19:08:35.547Z,98703.81
2023-04-13T19:11:05.261Z,98710.06
2023-04-13T19:13:34.980Z,98712.31
2023-04-13T19:16:09.378Z,98715.91
2023-04-13T19:18:39.238Z,98715.63
2023-04-13T19:21:09.289Z,98721.66
2023-04-13T19:23:40.429Z,98718.94
2023-04-13T19:26:10.425Z,98719.44
2023-04-13T19:28:40.116Z,98717.22
2023-04-13T19:31:12.487Z,98717.19
2023-04-13T19:33:42.411Z,98713.38
2023-04-13T19:36:12.316Z,98722.09
2023-04-13T19:38:42.438Z,98722.91
2023-04-13T19:41:12.247Z,98736.41
2023-04-13T19:43:41.931Z,98748.44
2023-04-13T19:46:14.274Z,98750.31
2023-04-13T19:48:43.998Z,98750.59
2023-04-13T19:51:13.662Z,98747.84
2023-04-13T19:53:43.306Z,98748.16
2023-04-13T19:56:13.409Z,98758.78
2023-04-13T19:58:43.092Z,98764.28
2023-04-13T20:01:16.233Z,98752.75
2023-04-13T20:03:46.440Z,98762.78
2023-04-13T20:06:16.484Z,98758.16
2023-04-13T20:08:46.631Z,98761.50
2023-04-13T20:11:16.431Z,98764.09
2023-04-13T20:13:48.376Z,98756.84
2023-04-13T20:16:20.683Z,98762.00
2023-04-13T20:18:50.582Z,98756.41
2023-04-13T20:21:20.429Z,98764.31
2023-04-13T20:23:50.098Z,98766.31
2023-04-13T20:26:19.816Z,98770.78
2023-04-13T20:28:49.532Z,98768.53
2023-04-13T20:31:21.813Z,98765.84
2023-04-13T20:33:51.655Z,98773.25
2023-04-13T20:36:21.850Z,98776.09
2023-04-13T20:38:51.546Z,98769.34
2023-04-13T20:41:22.134Z,98767.50
2023-04-13T20:43:53.365Z,98771.88
2023-04-13T20:46:34.413Z,98773.00
2023-04-13T20:49:05.589Z,98778.72
2023-04-13T20:51:35.925Z,98785.00
2023-04-13T20:54:06.427Z,98784.47
2023-04-13T20:56:36.274Z,98780.59
2023-04-13T20:59:05.943Z,98784.19
2023-04-13T21:01:38.784Z,98782.50
2023-04-13T21:04:08.545Z,98796.69
2023-04-13T21:06:38.332Z,98789.34
2023-04-13T21:09:08.853Z,98794.47
2023-04-13T21:11:38.868Z,98792.91
2023-04-13T21:14:08.564Z,98791.03
2023-04-13T21:16:41.175Z,98793.22
2023-04-13T21:19:10.941Z,98792.66
2023-04-13T21:21:40.923Z,98790.22
2023-04-13T21:24:11.144Z,98788.31
2023-04-13T21:26:41.055Z,98788.28
2023-04-13T21:29:11.320Z,98779.78
2023-04-13T21:31:43.576Z,98787.19
2023-04-13T21:34:13.188Z,98788.78
2023-04-13T21:39:16.176Z,98791.28
2023-04-13T21:41:45.855Z,98787.72
2023-04-13T21:44:28.682Z,98792.41
2023-04-13T21:47:01.830Z,98793.22
2023-04-13T21:49:31.558Z,98793.47
2023-04-13T21:52:01.237Z,98800.31
2023-04-13T21:54:30.978Z,98789.88
2023-04-13T21:57:00.631Z,98804.69
2023-04-13T21:59:30.343Z,98799.13
2023-04-13T22:02:02.643Z,98800.81
2023-04-13T22:04:32.484Z,98800.31
2023-04-13T22:07:02.178Z,98811.41
2023-04-13T22:09:31.826Z,98811.16
2023-04-13T22:12:01.490Z,98815.53
2023-04-13T22:14:31.127Z,98821.50
2023-04-13T22:17:03.920Z,98821.59
2023-04-13T22:19:33.545Z,98823.56
2023-04-13T22:22:03.206Z,98819.72
2023-04-13T22:24:32.878Z,98814.53
2023-04-13T22:27:04.800Z,98817.81
2023-04-13T22:29:34.631Z,98821.09
2023-04-13T22:32:06.890Z,98817.50
2023-04-13T22:34:36.549Z,98811.75
2023-04-13T22:37:07.154Z,98816.06
2023-04-13T22:39:36.931Z,98817.66
2023-04-13T22:42:07.061Z,98820.25
2023-04-13T22:44:36.976Z,98819.19
2023-04-13T22:47:09.180Z,98807.97
2023-04-13T22:49:38.845Z,98803.03
2023-04-13T22:52:08.773Z,98797.03
2023-04-13T22:54:38.517Z,98794.84
2023-04-13T22:57:08.182Z,98795.38
2023-04-13T22:59:37.812Z,98786.91
2023-04-13T23:02:10.120Z,98788.84
2023-04-13T23:04:40.661Z,98788.84
2023-04-13T23:07:10.521Z,98791.28
2023-04-13T23:09:40.159Z,98793.75
2023-04-13T23:12:10.360Z,98789.94
2023-04-13T23:14:40.542Z,98787.44
2023-04-13T23:17:12.768Z,98782.72
2023-04-13T23:19:42.469Z,98794.13
2023-04-13T23:22:12.123Z,98805.72
2023-04-13T23:24:41.784Z,98817.44
2023-04-13T23:27:11.454Z,98823.75
2023-04-13T23:29:45.674Z,98832.72
2023-04-13T23:32:17.982Z,98834.19
2023-04-13T23:34:47.635Z,98836.31
2023-04-13T23:37:17.386Z,98839.00
2023-04-13T23:39:47.022Z,98842.59
2023-04-13T23:42:16.766Z,98847.50
2023-04-13T23:44:46.467Z,98836.44
2023-04-13T23:47:18.774Z,98832.41
2023-04-13T23:49:48.527Z,98850.59
2023-04-13T23:52:18.202Z,98869.31
2023-04-13T23:54:47.850Z,98876.94
2023-04-13T23:57:17.588Z,98877.94
2023-04-13T23:59:47.203Z,98868.44
